Terminal Aerodrome Forecast
Issued by NWS

Home | Current Version | Previous Version | Text Only | Print | Product List | Glossary On
Versions: 1 2 3 4 5 6 7 8 9 10 11 12 13 14 15 16 17
000
FTUS42 KTBW 040104 AAA
TAFPIE
TAF AMD
KPIE 040104Z 0401/0424 09010G20KT P6SM VCTS FEW035CB SCT050 BKN250
     FM040200 09005KT P6SM SCT050 BKN250
     FM040400 00000KT P6SM FEW050 SCT250
     FM041500 04005KT P6SM SCT035 SCT250
     FM041800 21004KT P6SM VCTS FEW050CB SCT250
     FM042100 29006KT P6SM VCTS SCT050CB SCT150 BKN250=

USA.gov is the U.S. government's official web portal to all federal, state and local government web resources and services.